createdAt,value
2019-06-08T00:02:16.775Z,15.80
2019-06-08T00:04:28.668Z,15.80
2019-06-08T00:06:50.557Z,15.70
2019-06-08T00:09:09.559Z,15.70
2019-06-08T00:11:24.063Z,15.60
2019-06-08T00:13:41.127Z,15.60
2019-06-08T00:20:47.360Z,15.50
2019-06-08T00:23:13.747Z,15.40
2019-06-08T00:26:12.213Z,15.50
2019-06-08T00:28:36.478Z,15.40
2019-06-08T00:31:12.907Z,15.40
2019-06-08T00:33:29.334Z,15.40
2019-06-08T00:35:53.535Z,15.40
2019-06-08T00:38:11.124Z,15.50
2019-06-08T00:40:34.399Z,15.40
2019-06-08T00:43:15.114Z,15.40
2019-06-08T00:45:32.379Z,15.40
2019-06-08T00:47:52.810Z,15.30
2019-06-08T00:50:16.637Z,15.30
2019-06-08T00:52:27.460Z,15.20
2019-06-08T00:54:54.948Z,15.20
2019-06-08T00:57:21.767Z,15.20
2019-06-08T00:59:35.978Z,15.20
2019-06-08T01:01:54.094Z,15.10
2019-06-08T01:04:05.281Z,15.10
2019-06-08T01:06:18.863Z,15.10
2019-06-08T01:08:41.364Z,15.10
2019-06-08T01:11:13.793Z,15.10
2019-06-08T01:13:40.644Z,15.10
2019-06-08T01:16:15.116Z,15.00
2019-06-08T01:18:39.097Z,15.00
2019-06-08T01:20:50.276Z,15.00
2019-06-08T01:23:13.816Z,15.00
2019-06-08T01:25:32.946Z,15.00
2019-06-08T01:27:53.038Z,15.00
2019-06-08T01:30:13.641Z,15.00
2019-06-08T01:32:30.567Z,15.00
2019-06-08T01:34:43.044Z,15.00
2019-06-08T01:37:18.772Z,15.00
2019-06-08T01:39:37.130Z,15.00
2019-06-08T01:42:05.424Z,15.10
2019-06-08T01:44:28.181Z,15.10
2019-06-08T01:46:51.580Z,15.10
2019-06-08T01:49:26.206Z,15.10
2019-06-08T01:51:53.067Z,15.10
2019-06-08T01:54:20.264Z,15.10
2019-06-08T01:56:39.587Z,15.10
2019-06-08T01:59:07.404Z,15.10
2019-06-08T02:01:29.978Z,15.20
2019-06-08T02:03:46.080Z,15.20
2019-06-08T02:06:11.569Z,15.20
2019-06-08T02:08:26.585Z,15.30
2019-06-08T02:10:51.663Z,15.40
2019-06-08T02:13:12.297Z,15.40
2019-06-08T02:15:31.538Z,15.50
2019-06-08T02:17:46.944Z,15.50
2019-06-08T02:20:03.880Z,15.60
2019-06-08T02:22:20.466Z,15.60
2019-06-08T02:24:38.022Z,15.70
2019-06-08T02:31:37.938Z,15.70
2019-06-08T02:34:12.845Z,15.80
2019-06-08T02:36:31.623Z,15.80
2019-06-08T02:38:51.172Z,15.80
2019-06-08T02:41:15.371Z,15.80
2019-06-08T02:43:35.798Z,15.80
2019-06-08T02:45:50.810Z,15.80
2019-06-08T02:48:06.503Z,15.80
2019-06-08T02:50:17.345Z,15.80
2019-06-08T02:52:43.037Z,15.90
2019-06-08T02:55:14.871Z,15.80
2019-06-08T02:57:33.297Z,15.80
2019-06-08T02:59:45.720Z,15.80
2019-06-08T03:02:02.411Z,15.80
2019-06-08T03:04:27.410Z,15.80
2019-06-08T03:06:42.388Z,15.80
2019-06-08T03:09:11.211Z,15.80
2019-06-08T03:11:39.171Z,15.80
2019-06-08T03:14:04.419Z,15.80
2019-06-08T03:16:18.375Z,15.80
2019-06-08T03:18:31.455Z,15.80
2019-06-08T03:20:40.053Z,15.90
2019-06-08T03:22:44.231Z,15.90
2019-06-08T03:24:48.189Z,15.90
2019-06-08T03:26:53.384Z,15.90
2019-06-08T03:32:11.983Z,15.90
2019-06-08T03:34:45.803Z,15.90
2019-06-08T03:37:05.521Z,15.90
2019-06-08T03:39:59.005Z,15.90
2019-06-08T03:42:43.260Z,15.90
2019-06-08T03:45:23.247Z,15.90
2019-06-08T03:47:37.122Z,15.90
2019-06-08T03:50:14.270Z,15.90
2019-06-08T03:52:44.153Z,15.90
2019-06-08T03:55:19.639Z,15.90
2019-06-08T03:57:48.705Z,15.90
2019-06-08T03:59:51.392Z,16.00
2019-06-08T04:01:55.334Z,16.00
2019-06-08T04:04:00.198Z,16.00
2019-06-08T04:06:04.291Z,16.00
2019-06-08T04:08:08.571Z,16.00
2019-06-08T04:10:12.705Z,16.00
2019-06-08T04:12:16.619Z,16.10
2019-06-08T04:16:21.997Z,16.10
2019-06-08T04:17:04.374Z,16.00
2019-06-08T04:19:19.021Z,16.10
2019-06-08T04:21:33.303Z,16.10
2019-06-08T04:26:42.794Z,16.20
2019-06-08T04:29:06.703Z,16.20
2019-06-08T04:31:21.521Z,16.10
2019-06-08T04:33:32.355Z,16.10
2019-06-08T04:35:47.812Z,16.00
2019-06-08T04:38:04.125Z,16.00
2019-06-08T04:40:13.578Z,16.00
2019-06-08T04:43:21.989Z,15.90
2019-06-08T04:45:27.252Z,15.90
2019-06-08T04:47:31.316Z,15.90
2019-06-08T04:49:35.318Z,15.90
2019-06-08T04:51:40.630Z,15.90
2019-06-08T04:53:47.209Z,15.90
2019-06-08T04:55:57.304Z,15.90
2019-06-08T04:57:57.421Z,15.90
2019-06-08T05:00:11.275Z,15.90
2019-06-08T05:02:07.221Z,15.90
2019-06-08T05:04:11.254Z,15.90
2019-06-08T05:06:15.383Z,16.00
2019-06-08T05:08:19.212Z,16.00
2019-06-08T05:10:23.693Z,15.90
2019-06-08T05:12:27.536Z,15.90
2019-06-08T05:14:34.491Z,16.00
2019-06-08T05:16:45.335Z,16.00
2019-06-08T05:18:52.270Z,15.90
2019-06-08T05:20:56.179Z,16.00
2019-06-08T05:23:00.288Z,16.00
2019-06-08T05:25:07.377Z,16.00
2019-06-08T05:27:14.243Z,16.00
2019-06-08T05:29:18.101Z,15.90
2019-06-08T05:31:45.756Z,15.80
2019-06-08T05:36:33.870Z,15.80
2019-06-08T05:39:10.782Z,15.80
2019-06-08T05:41:24.313Z,15.70
2019-06-08T05:43:49.929Z,15.70
2019-06-08T05:46:25.750Z,15.70
2019-06-08T05:48:41.929Z,15.80
2019-06-08T05:51:03.171Z,15.80
2019-06-08T05:52:58.942Z,15.80
2019-06-08T05:55:06.141Z,15.90
2019-06-08T05:57:10.187Z,16.00
2019-06-08T05:59:14.071Z,16.00
2019-06-08T06:01:18.139Z,16.00
2019-06-08T06:03:21.976Z,16.10
2019-06-08T06:05:26.132Z,16.10
2019-06-08T06:07:33.085Z,16.10
2019-06-08T06:09:45.037Z,16.10
2019-06-08T06:11:49.407Z,16.10
2019-06-08T06:13:53.362Z,16.10
2019-06-08T06:16:06.600Z,16.00
2019-06-08T06:18:10.487Z,16.00
2019-06-08T06:20:14.609Z,15.90
2019-06-08T06:22:18.910Z,15.90
2019-06-08T06:24:22.728Z,16.00
2019-06-08T06:26:26.992Z,15.90
2019-06-08T06:28:30.770Z,16.00
2019-06-08T06:30:58.588Z,16.00
2019-06-08T06:33:02.592Z,16.00
2019-06-08T06:35:07.097Z,16.00
2019-06-08T06:37:14.116Z,15.90
2019-06-08T06:39:17.992Z,16.00
2019-06-08T06:41:22.278Z,15.90
2019-06-08T06:43:32.791Z,15.90
2019-06-08T06:45:49.799Z,15.90
2019-06-08T06:48:09.293Z,15.90
2019-06-08T06:52:58.736Z,15.90
2019-06-08T06:55:34.518Z,15.80
2019-06-08T06:57:55.424Z,15.90
2019-06-08T07:02:32.872Z,15.90
2019-06-08T07:04:37.086Z,15.90
2019-06-08T07:06:40.867Z,15.90
2019-06-08T07:08:44.687Z,15.90
2019-06-08T07:10:48.875Z,15.90
2019-06-08T07:12:52.882Z,15.90
2019-06-08T07:14:56.930Z,15.90
2019-06-08T07:17:00.730Z,16.00
2019-06-08T07:19:07.624Z,16.00
2019-06-08T07:21:11.682Z,16.00
2019-06-08T07:23:15.899Z,15.90
2019-06-08T07:25:20.028Z,15.90
2019-06-08T07:27:27.686Z,15.90
2019-06-08T07:29:31.527Z,16.00
2019-06-08T07:31:35.774Z,16.10
2019-06-08T07:33:44.147Z,16.10
2019-06-08T07:35:49.842Z,16.20
2019-06-08T07:40:04.191Z,16.50
2019-06-08T07:42:08.120Z,16.60
2019-06-08T07:44:11.982Z,16.60
2019-06-08T07:46:17.544Z,16.80
2019-06-08T07:48:23.755Z,16.80
2019-06-08T07:50:27.983Z,16.90
2019-06-08T07:52:31.950Z,17.00
2019-06-08T07:54:35.888Z,17.10
2019-06-08T07:56:39.777Z,17.10
2019-06-08T07:58:47.062Z,17.10
2019-06-08T08:00:54.647Z,17.00
2019-06-08T08:03:02.228Z,16.90
2019-06-08T08:05:09.698Z,16.80
2019-06-08T08:07:14.000Z,16.80
2019-06-08T08:09:21.197Z,16.70
2019-06-08T08:11:25.235Z,16.70
2019-06-08T08:13:29.186Z,16.60
2019-06-08T08:15:33.193Z,16.60
2019-06-08T08:17:37.278Z,16.60
2019-06-08T08:19:41.528Z,16.60
2019-06-08T08:21:48.276Z,16.60
2019-06-08T08:23:51.753Z,16.60
2019-06-08T08:25:58.652Z,16.70
2019-06-08T08:28:03.477Z,16.80
2019-06-08T08:30:08.481Z,16.90
2019-06-08T08:32:12.401Z,16.90
2019-06-08T08:34:18.273Z,16.90
2019-06-08T08:36:22.362Z,16.80
2019-06-08T08:38:27.259Z,16.70
2019-06-08T08:40:31.331Z,16.70
2019-06-08T08:42:35.358Z,16.60
2019-06-08T08:44:39.215Z,16.50
2019-06-08T08:46:48.872Z,16.50
2019-06-08T08:48:54.217Z,16.50
2019-06-08T08:51:00.797Z,16.50
2019-06-08T08:53:04.066Z,16.60
2019-06-08T08:55:08.412Z,16.60
2019-06-08T08:57:12.340Z,16.60
2019-06-08T08:59:17.753Z,16.70
2019-06-08T09:01:21.952Z,16.60
2019-06-08T09:03:33.434Z,16.60
2019-06-08T09:05:34.771Z,16.70
2019-06-08T09:07:38.980Z,16.80
2019-06-08T09:09:42.947Z,16.90
2019-06-08T09:11:48.378Z,16.90
2019-06-08T09:13:53.471Z,17.10
2019-06-08T09:16:00.182Z,17.20
2019-06-08T09:18:08.984Z,17.30
2019-06-08T09:20:15.970Z,17.40
2019-06-08T09:22:19.507Z,17.50
2019-06-08T09:25:03.206Z,17.50
2019-06-08T09:27:17.767Z,17.60
2019-06-08T09:29:44.183Z,17.70
2019-06-08T09:31:56.550Z,17.90
2019-06-08T09:34:25.163Z,18.10
2019-06-08T09:37:08.591Z,18.20
2019-06-08T09:39:31.734Z,18.40
2019-06-08T09:42:00.442Z,18.50
2019-06-08T09:44:28.092Z,18.60
2019-06-08T09:49:05.905Z,18.80
2019-06-08T09:51:09.262Z,19.00
2019-06-08T09:53:37.646Z,19.10
2019-06-08T09:56:02.344Z,19.60
2019-06-08T09:58:28.941Z,19.90
2019-06-08T10:00:45.610Z,20.30
2019-06-08T10:03:12.997Z,20.60
2019-06-08T10:05:44.645Z,20.90
2019-06-08T10:08:06.031Z,20.80
2019-06-08T10:10:29.711Z,20.70
2019-06-08T10:12:48.173Z,20.50
2019-06-08T10:15:08.041Z,20.30
2019-06-08T10:17:32.155Z,20.20
2019-06-08T10:20:04.556Z,20.20
2019-06-08T10:22:18.009Z,20.20
2019-06-08T10:24:38.762Z,19.90
2019-06-08T10:27:11.393Z,19.90
2019-06-08T10:29:22.704Z,20.00
2019-06-08T10:31:43.524Z,19.80
2019-06-08T10:34:11.349Z,19.60
2019-06-08T10:36:42.907Z,19.60
2019-06-08T10:38:51.570Z,19.50
2019-06-08T10:41:10.906Z,19.20
2019-06-08T10:43:11.380Z,19.10
2019-06-08T10:45:19.170Z,19.00
2019-06-08T10:47:29.489Z,18.90
2019-06-08T10:49:39.402Z,18.80
2019-06-08T10:51:48.758Z,18.80
2019-06-08T10:54:02.328Z,18.90
2019-06-08T10:56:05.607Z,18.90
2019-06-08T10:58:20.429Z,19.10
2019-06-08T11:00:31.377Z,19.20
2019-06-08T11:02:48.714Z,19.50
2019-06-08T11:04:58.863Z,19.60
2019-06-08T11:07:13.180Z,19.90
2019-06-08T11:09:15.082Z,19.90
2019-06-08T11:13:41.749Z,20.00
2019-06-08T11:18:28.518Z,20.30
2019-06-08T11:20:40.661Z,20.50
2019-06-08T11:23:18.730Z,20.60
2019-06-08T11:25:38.304Z,20.70
2019-06-08T11:28:03.613Z,20.70
2019-06-08T11:30:30.622Z,21.00
2019-06-08T11:32:54.069Z,21.20
2019-06-08T11:35:10.635Z,21.50
2019-06-08T11:37:59.837Z,21.40
2019-06-08T11:40:23.257Z,21.30
2019-06-08T11:42:48.545Z,21.60
2019-06-08T11:45:11.031Z,21.90
2019-06-08T11:49:50.111Z,22.20
2019-06-08T11:52:11.903Z,22.30
2019-06-08T11:54:43.512Z,22.20
2019-06-08T11:57:28.298Z,21.90
2019-06-08T11:59:55.151Z,21.70
2019-06-08T12:02:31.034Z,21.50
2019-06-08T12:05:20.621Z,21.60
2019-06-08T12:08:04.385Z,21.50
2019-06-08T12:10:33.593Z,21.60
2019-06-08T12:13:27.922Z,21.40
2019-06-08T12:15:58.743Z,21.20
2019-06-08T12:18:40.362Z,20.80
2019-06-08T12:21:27.757Z,20.30
2019-06-08T12:23:50.400Z,19.70
2019-06-08T12:26:04.642Z,19.40
2019-06-08T12:28:41.157Z,19.20
2019-06-08T12:31:15.869Z,19.20
2019-06-08T12:33:39.364Z,19.30
2019-06-08T12:36:20.776Z,19.30
2019-06-08T12:38:42.034Z,19.30
2019-06-08T12:41:02.868Z,19.30
2019-06-08T12:43:40.888Z,19.40
2019-06-08T12:46:02.319Z,19.40
2019-06-08T12:48:14.652Z,19.30
2019-06-08T12:50:28.096Z,19.60
2019-06-08T12:52:58.527Z,20.10
2019-06-08T12:55:32.978Z,20.60
2019-06-08T12:57:52.969Z,21.20
2019-06-08T13:00:30.358Z,21.70
2019-06-08T13:03:01.497Z,22.10
2019-06-08T13:05:22.779Z,22.60
2019-06-08T13:10:32.890Z,23.00
2019-06-08T13:13:14.730Z,22.90
2019-06-08T13:15:38.965Z,22.90
2019-06-08T13:17:59.955Z,23.20
2019-06-08T13:20:42.123Z,23.40
2019-06-08T13:25:37.601Z,23.60
2019-06-08T13:27:37.865Z,23.60
2019-06-08T13:30:07.584Z,23.50
2019-06-08T13:32:28.671Z,23.50
2019-06-08T13:34:53.403Z,23.60
2019-06-08T13:37:08.473Z,23.30
2019-06-08T13:39:35.140Z,23.10
2019-06-08T13:41:52.072Z,23.00
2019-06-08T13:44:08.233Z,23.10
2019-06-08T13:46:23.698Z,23.30
2019-06-08T13:48:34.747Z,23.20
2019-06-08T13:50:52.465Z,23.00
2019-06-08T13:53:31.820Z,22.90
2019-06-08T13:55:53.236Z,22.90
2019-06-08T13:58:15.133Z,23.00
2019-06-08T14:00:38.810Z,23.20
2019-06-08T14:03:21.712Z,23.00
2019-06-08T14:05:50.365Z,23.10
2019-06-08T14:08:25.495Z,23.30
2019-06-08T14:13:53.572Z,23.20
2019-06-08T14:16:15.934Z,23.00
2019-06-08T14:18:35.691Z,22.60
2019-06-08T14:21:03.944Z,22.40
2019-06-08T14:23:26.871Z,22.10
2019-06-08T14:25:56.675Z,22.10
2019-06-08T14:28:08.327Z,22.10
2019-06-08T14:30:32.901Z,22.00
2019-06-08T14:32:59.656Z,21.90
2019-06-08T14:35:40.717Z,22.00
2019-06-08T14:38:09.441Z,21.90
2019-06-08T14:40:23.750Z,21.90
2019-06-08T14:43:10.646Z,21.90
2019-06-08T14:45:30.976Z,22.00
2019-06-08T14:47:47.585Z,22.00
2019-06-08T14:50:08.120Z,22.20
2019-06-08T14:52:47.940Z,22.20
2019-06-08T14:55:04.667Z,22.30
2019-06-08T14:57:23.372Z,22.40
2019-06-08T14:59:50.101Z,22.40
2019-06-08T15:02:11.329Z,22.60
2019-06-08T15:04:39.849Z,22.80
2019-06-08T15:07:00.680Z,22.80
2019-06-08T15:10:11.038Z,22.90
2019-06-08T15:14:38.433Z,23.10
2019-06-08T15:17:04.590Z,23.00
2019-06-08T15:19:18.486Z,22.80
2019-06-08T15:21:23.881Z,22.60
2019-06-08T15:23:33.561Z,22.40
2019-06-08T15:25:46.380Z,22.40
2019-06-08T15:28:01.399Z,22.40
2019-06-08T15:30:13.849Z,22.30
2019-06-08T15:32:18.097Z,22.10
2019-06-08T15:34:23.215Z,22.00
2019-06-08T15:36:32.869Z,22.10
2019-06-08T15:39:07.797Z,22.10
2019-06-08T15:41:34.445Z,22.20
2019-06-08T15:44:11.256Z,22.30
2019-06-08T15:46:15.416Z,22.20
2019-06-08T15:48:38.429Z,22.10
2019-06-08T15:51:28.863Z,22.00
2019-06-08T15:53:40.381Z,22.20
2019-06-08T15:55:53.991Z,22.20
2019-06-08T15:58:02.650Z,22.30
2019-06-08T16:00:18.861Z,22.20
2019-06-08T16:02:32.180Z,21.90
2019-06-08T16:04:36.418Z,21.60
2019-06-08T16:06:40.713Z,21.40
2019-06-08T16:09:07.504Z,21.30
2019-06-08T16:11:20.389Z,21.00
2019-06-08T16:15:37.438Z,20.10
2019-06-08T16:17:44.172Z,20.10
2019-06-08T16:19:53.213Z,20.20
2019-06-08T16:22:02.404Z,20.20
2019-06-08T16:24:12.421Z,20.10
2019-06-08T16:26:22.869Z,19.90
2019-06-08T16:28:31.981Z,19.70
2019-06-08T16:32:54.529Z,19.50
2019-06-08T16:35:16.556Z,19.40
2019-06-08T16:37:20.477Z,19.50
2019-06-08T16:39:25.022Z,19.60
2019-06-08T16:41:40.137Z,19.50
2019-06-08T16:43:59.374Z,19.40
2019-06-08T16:46:06.518Z,19.30
2019-06-08T16:48:12.172Z,19.30
2019-06-08T16:52:36.697Z,19.40
2019-06-08T16:54:54.880Z,19.60
2019-06-08T16:57:10.785Z,19.70
2019-06-08T16:59:15.550Z,19.90
2019-06-08T17:01:28.310Z,20.10
2019-06-08T17:03:32.923Z,20.20
2019-06-08T17:05:41.515Z,20.20
2019-06-08T17:07:51.664Z,20.20
2019-06-08T17:09:58.954Z,20.10
2019-06-08T17:12:18.985Z,19.80
2019-06-08T17:14:25.352Z,19.70
2019-06-08T17:16:34.454Z,19.50
2019-06-08T17:18:47.880Z,19.50
2019-06-08T17:20:53.144Z,19.70
2019-06-08T17:23:05.509Z,19.40
2019-06-08T17:25:09.979Z,19.00
2019-06-08T17:27:26.304Z,18.60
2019-06-08T17:29:19.964Z,18.40
2019-06-08T17:31:23.888Z,18.40
2019-06-08T17:33:33.111Z,18.70
2019-06-08T17:35:44.399Z,19.00
2019-06-08T17:37:54.239Z,19.10
2019-06-08T17:40:16.517Z,19.20
2019-06-08T17:42:32.874Z,19.30
2019-06-08T17:44:43.621Z,21.10
2019-06-08T17:46:58.273Z,22.50
2019-06-08T17:49:07.536Z,24.00
2019-06-08T17:51:17.296Z,24.70
2019-06-08T17:53:21.287Z,26.30
2019-06-08T17:55:27.066Z,27.90
2019-06-08T17:57:52.813Z,28.50
2019-06-08T17:59:48.700Z,28.90
2019-06-08T18:02:00.009Z,29.70
2019-06-08T18:04:14.692Z,27.60
2019-06-08T18:06:18.619Z,25.40
2019-06-08T18:08:28.201Z,25.90
2019-06-08T18:10:33.769Z,25.50
2019-06-08T18:12:43.475Z,25.40
2019-06-08T18:14:47.957Z,24.10
2019-06-08T18:16:52.109Z,22.60
2019-06-08T18:18:57.730Z,23.80
2019-06-08T18:21:02.157Z,22.80
2019-06-08T18:23:08.159Z,21.90
2019-06-08T18:25:13.111Z,20.90
2019-06-08T18:27:21.654Z,20.80
2019-06-08T18:29:38.880Z,23.00
2019-06-08T18:31:46.119Z,24.10
2019-06-08T18:33:58.262Z,24.20
2019-06-08T18:36:07.669Z,24.10
2019-06-08T18:38:21.643Z,23.40
2019-06-08T18:40:34.915Z,23.50
2019-06-08T18:42:39.567Z,23.20
2019-06-08T18:44:42.975Z,23.10
2019-06-08T18:46:48.312Z,21.60
2019-06-08T18:48:52.285Z,20.60
2019-06-08T18:50:57.221Z,19.90
2019-06-08T18:53:01.455Z,19.30
2019-06-08T18:55:08.174Z,19.00
2019-06-08T18:59:19.468Z,18.40
2019-06-08T19:01:23.909Z,18.20
2019-06-08T19:03:40.308Z,18.00
2019-06-08T19:05:45.654Z,17.90
2019-06-08T19:07:51.582Z,17.70
2019-06-08T19:09:57.850Z,17.50
2019-06-08T19:12:05.375Z,17.40
2019-06-08T19:14:20.588Z,17.20
2019-06-08T19:16:23.513Z,17.00
2019-06-08T19:18:30.575Z,16.80
2019-06-08T19:20:34.451Z,16.60
2019-06-08T19:22:43.799Z,16.50
2019-06-08T19:24:49.461Z,16.30
2019-06-08T19:26:51.929Z,16.20
2019-06-08T19:28:57.815Z,16.00
2019-06-08T19:31:01.718Z,15.90
2019-06-08T19:33:07.329Z,15.80
2019-06-08T19:35:11.179Z,15.70
2019-06-08T19:37:17.134Z,15.60
2019-06-08T19:39:20.569Z,15.50
2019-06-08T19:41:24.544Z,15.50
2019-06-08T19:43:28.482Z,15.40
2019-06-08T19:45:32.332Z,15.30
2019-06-08T19:47:36.134Z,15.20
2019-06-08T19:49:41.323Z,15.20
2019-06-08T19:51:47.938Z,15.10
2019-06-08T19:53:52.935Z,15.00
2019-06-08T19:55:57.188Z,15.00
2019-06-08T19:58:01.115Z,14.90
2019-06-08T20:00:07.427Z,14.80
2019-06-08T20:02:12.131Z,14.80
2019-06-08T20:04:17.803Z,14.80
2019-06-08T20:06:21.552Z,14.70
2019-06-08T20:08:25.474Z,14.60
2019-06-08T20:10:29.333Z,14.60
2019-06-08T20:12:33.210Z,14.60
2019-06-08T20:14:37.525Z,14.50
2019-06-08T20:16:42.618Z,14.40
2019-06-08T20:18:48.608Z,14.40
2019-06-08T20:20:54.344Z,14.30
2019-06-08T20:22:58.670Z,14.30
2019-06-08T20:25:02.641Z,14.20
2019-06-08T20:27:07.713Z,14.20
2019-06-08T20:29:16.282Z,14.10
2019-06-08T20:31:18.224Z,14.10
2019-06-08T20:33:27.250Z,14.10
2019-06-08T20:35:28.166Z,14.00
2019-06-08T20:37:32.363Z,14.00
2019-06-08T20:39:38.222Z,13.90
2019-06-08T20:41:41.868Z,13.90
2019-06-08T20:43:49.895Z,13.90
2019-06-08T20:45:52.161Z,13.90
2019-06-08T20:47:58.474Z,13.80
2019-06-08T20:50:02.735Z,13.80
2019-06-08T20:52:08.594Z,13.70
2019-06-08T20:54:12.243Z,13.70
2019-06-08T20:56:17.377Z,13.70
2019-06-08T20:58:21.281Z,13.70
2019-06-08T21:00:25.096Z,13.60
2019-06-08T21:04:33.007Z,13.50
2019-06-08T21:06:38.568Z,13.50
2019-06-08T21:08:42.612Z,13.50
2019-06-08T21:10:49.222Z,13.40
2019-06-08T21:12:52.983Z,13.30
2019-06-08T21:14:58.084Z,13.30
2019-06-08T21:17:02.081Z,13.20
2019-06-08T21:19:13.089Z,13.20
2019-06-08T21:21:38.872Z,13.20
2019-06-08T21:24:00.891Z,13.10
2019-06-08T21:28:56.636Z,13.00
2019-06-08T21:31:22.987Z,12.90
2019-06-08T21:33:49.110Z,12.90
2019-06-08T21:36:14.922Z,12.90
2019-06-08T21:38:28.676Z,12.90
2019-06-08T21:41:02.928Z,12.80
2019-06-08T21:43:27.883Z,12.80
2019-06-08T21:45:56.320Z,12.80
2019-06-08T21:48:19.348Z,12.80
2019-06-08T21:50:53.333Z,12.80
2019-06-08T21:53:11.215Z,12.80
2019-06-08T21:55:49.461Z,12.80
2019-06-08T21:57:52.694Z,12.80
2019-06-08T22:00:35.941Z,12.70
2019-06-08T22:02:37.604Z,12.80
2019-06-08T22:04:53.363Z,12.80
2019-06-08T22:06:59.710Z,12.80
2019-06-08T22:09:25.149Z,12.80
2019-06-08T22:12:00.551Z,12.90
2019-06-08T22:14:15.089Z,12.90
2019-06-08T22:16:39.672Z,12.90
2019-06-08T22:19:07.564Z,12.90
2019-06-08T22:21:19.085Z,12.90
2019-06-08T22:23:40.948Z,13.00
2019-06-08T22:26:08.357Z,13.00
2019-06-08T22:28:48.229Z,13.00
2019-06-08T22:30:44.051Z,13.00
2019-06-08T22:33:10.143Z,12.90
2019-06-08T22:35:37.087Z,12.90
2019-06-08T22:37:42.724Z,12.90
2019-06-08T22:40:09.802Z,12.80
2019-06-08T22:42:25.085Z,12.80
2019-06-08T22:47:24.458Z,12.70
2019-06-08T22:49:53.177Z,12.70
2019-06-08T22:52:09.418Z,12.60
2019-06-08T22:54:38.351Z,12.60
2019-06-08T22:56:54.204Z,12.60
2019-06-08T22:59:17.352Z,12.60
2019-06-08T23:01:40.313Z,12.50
2019-06-08T23:04:15.168Z,12.50
2019-06-08T23:06:34.533Z,12.40
2019-06-08T23:08:48.632Z,12.40
2019-06-08T23:11:12.388Z,12.40
2019-06-08T23:13:37.495Z,12.30
2019-06-08T23:15:50.106Z,12.30
2019-06-08T23:18:29.765Z,12.20
2019-06-08T23:20:52.451Z,12.30
2019-06-08T23:23:13.199Z,12.20
2019-06-08T23:25:37.314Z,12.20
2019-06-08T23:28:10.408Z,12.20
2019-06-08T23:30:41.146Z,12.10
2019-06-08T23:33:22.129Z,12.10
2019-06-08T23:36:33.605Z,12.20
2019-06-08T23:38:27.908Z,12.10
2019-06-08T23:40:53.781Z,12.10
2019-06-08T23:43:23.886Z,12.10
2019-06-08T23:45:50.642Z,12.10
2019-06-08T23:48:17.333Z,12.00
2019-06-08T23:50:49.736Z,12.00
2019-06-08T23:53:07.781Z,12.00
2019-06-08T23:55:37.879Z,11.90
2019-06-08T23:57:55.599Z,11.90
